Time;durP1;ratioP1;P1;durP2;ratioP2;P2;SDS_P1;SDS_P2;PMS_P1;PMS_P2;Temp;Humidity;BMP_temperature;BMP_pressure;BME280_temperature;BME280_humidity;BME280_pressure;Samples;Min_cycle;Max_cycle;Signal;HPM_P1;HPM_P2
2023/12/19 00:01:23;;;;;;;47.30;26.67;;;8.50;99.90;;;;;;5067432;28;20040;-72
2023/12/19 00:03:48;;;;;;;49.63;25.48;;;8.60;99.90;;;;;;5050306;28;20055;-72
2023/12/19 00:06:14;;;;;;;42.67;25.80;;;8.60;99.90;;;;;;5051115;28;20047;-71
2023/12/19 00:08:40;;;;;;;43.63;26.35;;;8.50;99.90;;;;;;5052536;28;20495;-73
2023/12/19 00:11:06;;;;;;;43.42;24.27;;;8.60;99.90;;;;;;5046082;28;20407;-71
2023/12/19 00:13:32;;;;;;;39.90;22.15;;;8.60;99.90;;;;;;5050898;28;20041;-71
2023/12/19 00:15:58;;;;;;;36.83;22.42;;;8.50;99.90;;;;;;5042042;28;20052;-72
2023/12/19 00:18:24;;;;;;;39.50;23.30;;;8.50;99.90;;;;;;5041477;28;20099;-72
2023/12/19 00:20:52;;;;;;;39.78;22.90;;;8.60;99.90;;;;;;5050838;28;20045;-70
2023/12/19 00:23:18;;;;;;;32.30;21.40;;;8.50;99.90;;;;;;5051040;28;20057;-72
2023/12/19 00:25:44;;;;;;;33.97;23.15;;;8.50;99.90;;;;;;5050142;28;20079;-72
2023/12/19 00:28:10;;;;;;;35.33;22.08;;;8.50;99.90;;;;;;5050416;28;20041;-72
2023/12/19 00:30:36;;;;;;;36.83;21.08;;;8.60;99.90;;;;;;5038820;28;20041;-72
2023/12/19 00:33:02;;;;;;;34.70;20.42;;;8.50;99.90;;;;;;5051837;28;20049;-72
2023/12/19 00:35:27;;;;;;;35.05;21.05;;;8.50;99.90;;;;;;5048443;28;20090;-72
2023/12/19 00:37:53;;;;;;;32.42;20.15;;;8.50;99.90;;;;;;5050635;28;20130;-72
2023/12/19 00:40:19;;;;;;;33.67;20.00;;;8.60;99.90;;;;;;5034705;28;20051;-72
2023/12/19 00:42:45;;;;;;;36.40;20.33;;;8.60;99.90;;;;;;5051495;28;20128;-71
2023/12/19 00:45:11;;;;;;;33.13;22.00;;;8.60;99.90;;;;;;5047323;28;20038;-73
2023/12/19 00:47:37;;;;;;;35.03;20.90;;;8.60;99.90;;;;;;5052151;28;20044;-73
2023/12/19 00:50:02;;;;;;;29.00;20.27;;;8.60;99.90;;;;;;5051535;28;20148;-73
2023/12/19 00:52:30;;;;;;;37.70;21.65;;;8.60;99.90;;;;;;5034040;28;20044;-72
2023/12/19 00:54:55;;;;;;;36.95;22.95;;;8.60;99.90;;;;;;5045143;28;20456;-72
2023/12/19 00:57:21;;;;;;;30.25;21.13;;;8.70;99.90;;;;;;5050546;28;20123;-72
2023/12/19 00:59:46;;;;;;;31.98;20.98;;;8.70;99.90;;;;;;5050393;28;20048;-73
2023/12/19 01:02:12;;;;;;;33.25;21.67;;;8.70;99.90;;;;;;5051145;28;20051;-73
2023/12/19 01:04:38;;;;;;;32.50;18.55;;;8.70;99.90;;;;;;5046490;28;20044;-72
2023/12/19 01:07:03;;;;;;;31.52;20.65;;;8.70;99.90;;;;;;5044800;28;20083;-73
2023/12/19 01:09:29;;;;;;;34.20;21.60;;;8.60;99.90;;;;;;5051646;28;20487;-73
2023/12/19 01:11:55;;;;;;;33.58;20.27;;;8.60;99.90;;;;;;5049538;28;20045;-71
2023/12/19 01:14:21;;;;;;;30.88;20.20;;;8.60;99.90;;;;;;5049823;28;20364;-73
2023/12/19 01:16:46;;;;;;;32.78;21.35;;;8.60;99.90;;;;;;5047800;28;20048;-72
2023/12/19 01:19:13;;;;;;;32.95;20.27;;;8.70;99.90;;;;;;5057655;28;20128;-72
2023/12/19 01:21:39;;;;;;;30.40;19.83;;;8.70;99.90;;;;;;5058412;28;20048;-72
2023/12/19 01:24:05;;;;;;;29.08;19.40;;;8.60;99.90;;;;;;5057764;28;20049;-71
2023/12/19 01:26:34;;;;;;;31.83;18.75;;;8.70;99.90;;;;;;5056088;28;20055;-73
2023/12/19 01:28:59;;;;;;;31.60;18.58;;;8.70;99.90;;;;;;5048190;28;20515;-73
2023/12/19 01:31:25;;;;;;;30.00;17.13;;;8.70;99.90;;;;;;5052325;28;20083;-72
2023/12/19 01:33:52;;;;;;;31.30;19.02;;;8.70;99.90;;;;;;5058040;28;20048;-72
2023/12/19 01:36:17;;;;;;;26.83;18.27;;;8.70;99.90;;;;;;5056080;28;20139;-73
2023/12/19 01:38:43;;;;;;;32.17;18.92;;;8.70;99.90;;;;;;5057755;28;20055;-73
2023/12/19 01:41:09;;;;;;;28.90;18.35;;;8.70;99.90;;;;;;5057748;28;20045;-72
2023/12/19 01:43:34;;;;;;;28.90;17.95;;;8.70;99.90;;;;;;5057085;28;20075;-72
2023/12/19 01:46:00;;;;;;;28.38;18.33;;;8.70;99.90;;;;;;5051871;28;20072;-72
2023/12/19 01:48:26;;;;;;;25.40;15.63;;;8.80;99.90;;;;;;5047787;28;20041;-72
2023/12/19 01:50:52;;;;;;;29.52;15.75;;;8.80;99.90;;;;;;5057097;28;20055;-73
2023/12/19 01:53:21;;;;;;;24.13;15.30;;;8.80;99.90;;;;;;5056603;28;20673;-72
2023/12/19 01:55:51;;;;;;;29.88;17.65;;;8.70;99.90;;;;;;5033529;28;20408;-73
2023/12/19 01:58:18;;;;;;;24.85;17.65;;;8.80;99.90;;;;;;5047852;28;20056;-72
2023/12/19 02:00:44;;;;;;;23.10;16.00;;;8.70;99.90;;;;;;5057936;28;20049;-72
2023/12/19 02:03:10;;;;;;;21.83;15.85;;;8.80;99.90;;;;;;5056347;28;20106;-72
2023/12/19 02:05:38;;;;;;;25.30;16.73;;;8.80;99.90;;;;;;5044033;28;20049;-73
2023/12/19 02:08:04;;;;;;;22.67;15.77;;;8.70;99.90;;;;;;5055768;28;20037;-71
2023/12/19 02:10:31;;;;;;;18.27;13.30;;;8.70;99.90;;;;;;5056968;28;20060;-73
2023/12/19 02:12:57;;;;;;;18.90;13.95;;;8.80;99.90;;;;;;5057983;28;20091;-73
2023/12/19 02:15:23;;;;;;;20.75;13.93;;;8.80;99.90;;;;;;5046325;28;20053;-71
2023/12/19 02:17:49;;;;;;;20.63;13.82;;;8.70;99.90;;;;;;5053944;28;20127;-73
2023/12/19 02:20:14;;;;;;;18.88;14.35;;;8.80;99.90;;;;;;5056905;28;20044;-73
2023/12/19 02:22:41;;;;;;;21.45;13.73;;;8.80;99.90;;;;;;5036927;28;20100;-73
2023/12/19 02:25:07;;;;;;;21.88;13.57;;;8.70;99.90;;;;;;5034791;28;20065;-72
2023/12/19 02:27:35;;;;;;;18.52;13.60;;;8.70;99.90;;;;;;5045260;28;20045;-73
2023/12/19 02:30:01;;;;;;;18.58;13.98;;;8.70;99.90;;;;;;5041955;28;20045;-72
2023/12/19 02:32:27;;;;;;;18.38;13.30;;;8.80;99.90;;;;;;5036325;28;20140;-73
2023/12/19 02:34:52;;;;;;;17.90;11.85;;;8.80;99.90;;;;;;5053612;28;20139;-72
2023/12/19 02:37:18;;;;;;;18.30;12.45;;;8.70;99.90;;;;;;5052837;28;20094;-72
2023/12/19 02:39:44;;;;;;;18.75;13.15;;;8.70;99.90;;;;;;5047173;28;20045;-73
2023/12/19 02:42:09;;;;;;;17.60;12.93;;;8.70;99.90;;;;;;5052489;28;20089;-71
2023/12/19 02:44:35;;;;;;;19.23;12.70;;;8.70;99.90;;;;;;5053732;28;20037;-72
2023/12/19 02:47:01;;;;;;;18.27;13.15;;;8.70;99.90;;;;;;5053173;28;20098;-71
2023/12/19 02:49:26;;;;;;;20.15;13.85;;;8.80;99.90;;;;;;5051335;28;20236;-73
2023/12/19 02:51:52;;;;;;;18.48;13.07;;;8.70;99.90;;;;;;5052878;28;20037;-72
2023/12/19 02:54:18;;;;;;;19.30;12.82;;;8.80;99.90;;;;;;5052555;28;20045;-73
2023/12/19 02:56:43;;;;;;;19.67;13.50;;;8.80;99.90;;;;;;5053996;28;20446;-71
2023/12/19 02:59:09;;;;;;;18.13;12.80;;;8.80;99.90;;;;;;5048961;28;20049;-70
2023/12/19 03:01:35;;;;;;;18.40;12.15;;;8.70;99.90;;;;;;5037323;28;20059;-72
2023/12/19 03:04:01;;;;;;;15.55;11.55;;;8.80;99.90;;;;;;5048933;28;20444;-73
2023/12/19 03:06:26;;;;;;;16.27;11.90;;;8.70;99.90;;;;;;5053254;28;20049;-73
2023/12/19 03:08:57;;;;;;;15.40;11.55;;;8.80;99.90;;;;;;5051751;28;20053;-73
2023/12/19 03:11:23;;;;;;;17.92;12.40;;;8.80;99.90;;;;;;5068176;28;20056;-72
2023/12/19 03:13:48;;;;;;;16.67;12.20;;;8.80;99.90;;;;;;5051085;28;20053;-72
2023/12/19 03:16:14;;;;;;;17.70;12.23;;;8.80;99.90;;;;;;5068671;28;20055;-71
2023/12/19 03:18:40;;;;;;;15.02;10.65;;;8.80;99.90;;;;;;5041102;28;20049;-73
2023/12/19 03:21:08;;;;;;;16.73;12.98;;;8.70;99.90;;;;;;5051057;28;20428;-73
2023/12/19 03:23:34;;;;;;;16.58;11.48;;;8.80;99.90;;;;;;5051838;28;20052;-72
2023/12/19 03:25:59;;;;;;;15.90;11.65;;;8.80;99.90;;;;;;5051846;28;20049;-73
2023/12/19 03:28:25;;;;;;;16.65;12.52;;;8.80;99.90;;;;;;5053092;28;20068;-73
2023/12/19 03:30:51;;;;;;;18.83;13.95;;;8.80;99.90;;;;;;5043725;28;20048;-73
2023/12/19 03:33:16;;;;;;;17.58;12.57;;;8.70;99.90;;;;;;5053023;28;20049;-72
2023/12/19 03:35:42;;;;;;;17.67;12.57;;;8.70;99.90;;;;;;5066764;28;20446;-73
2023/12/19 03:38:08;;;;;;;18.73;11.20;;;8.80;99.90;;;;;;5051329;28;20033;-72
2023/12/19 03:40:35;;;;;;;16.27;11.85;;;8.80;99.90;;;;;;5051229;28;20107;-71
2023/12/19 03:43:01;;;;;;;17.58;11.77;;;8.70;99.90;;;;;;5049934;28;20119;-70
2023/12/19 03:45:28;;;;;;;15.45;11.00;;;8.80;99.90;;;;;;5050995;28;20041;-71
2023/12/19 03:47:53;;;;;;;15.13;11.30;;;8.70;99.90;;;;;;5047070;28;20144;-71
2023/12/19 03:50:19;;;;;;;14.43;10.95;;;8.70;99.90;;;;;;5052309;28;20052;-71
2023/12/19 03:52:45;;;;;;;15.45;11.05;;;8.70;99.90;;;;;;5050077;28;20047;-72
2023/12/19 03:55:10;;;;;;;15.88;10.93;;;8.70;99.90;;;;;;5047614;28;20103;-71
2023/12/19 03:57:36;;;;;;;15.95;11.57;;;8.60;99.90;;;;;;5042290;28;20349;-73
2023/12/19 04:00:03;;;;;;;15.77;10.88;;;8.60;99.90;;;;;;5051512;28;20053;-72
2023/12/19 04:02:29;;;;;;;15.48;11.43;;;8.70;99.90;;;;;;5049996;28;20442;-72
2023/12/19 04:04:54;;;;;;;15.10;10.75;;;8.60;99.90;;;;;;5050216;28;20056;-73
2023/12/19 04:07:20;;;;;;;15.55;10.93;;;8.70;99.90;;;;;;5052142;28;20047;-72
2023/12/19 04:09:45;;;;;;;15.82;11.25;;;8.70;99.90;;;;;;5052536;28;20408;-72
2023/12/19 04:12:13;;;;;;;15.35;10.80;;;8.70;99.90;;;;;;5048877;28;20080;-72
2023/12/19 04:14:39;;;;;;;13.13;8.88;;;8.60;99.90;;;;;;5040700;28;20045;-73
2023/12/19 04:17:04;;;;;;;13.50;9.43;;;8.70;99.90;;;;;;5050984;28;20124;-73
2023/12/19 04:19:30;;;;;;;12.15;8.80;;;8.70;99.90;;;;;;5051987;28;20044;-74
2023/12/19 04:21:57;;;;;;;11.45;8.45;;;8.70;99.90;;;;;;5051406;28;20450;-72
2023/12/19 04:24:25;;;;;;;12.18;8.25;;;8.70;99.90;;;;;;5037697;28;20057;-72
2023/12/19 04:26:51;;;;;;;10.82;8.00;;;8.60;99.90;;;;;;5051535;28;20061;-74
2023/12/19 04:29:17;;;;;;;10.40;7.70;;;8.60;99.90;;;;;;5052239;28;20057;-74
2023/12/19 04:31:42;;;;;;;10.38;7.25;;;8.60;99.90;;;;;;5050678;28;20059;-74
2023/12/19 04:34:08;;;;;;;9.55;7.60;;;8.60;99.90;;;;;;5040627;28;20045;-72
2023/12/19 04:36:34;;;;;;;10.25;7.75;;;8.60;99.90;;;;;;5040415;28;20044;-72
2023/12/19 04:39:00;;;;;;;9.30;7.10;;;8.60;99.90;;;;;;5051730;28;20114;-73
2023/12/19 04:41:26;;;;;;;10.60;7.03;;;8.70;99.90;;;;;;5051598;28;20039;-72
2023/12/19 04:43:51;;;;;;;9.02;6.40;;;8.60;99.90;;;;;;5047962;28;20060;-72
2023/12/19 04:46:17;;;;;;;11.02;7.03;;;8.50;99.90;;;;;;5046904;28;20033;-73
2023/12/19 04:48:43;;;;;;;9.73;7.03;;;8.60;99.90;;;;;;5051580;28;20111;-72
2023/12/19 04:51:19;;;;;;;12.60;7.55;;;8.60;99.90;;;;;;5051549;28;20395;-72
2023/12/19 04:53:45;;;;;;;9.93;6.93;;;8.50;99.90;;;;;;5050593;28;20480;-72
2023/12/19 04:56:11;;;;;;;10.43;7.43;;;8.50;99.90;;;;;;5048584;28;20053;-73
2023/12/19 04:58:41;;;;;;;8.90;7.03;;;8.60;99.90;;;;;;5051333;28;20040;-72
2023/12/19 05:01:07;;;;;;;10.32;7.88;;;8.50;99.90;;;;;;5050955;28;20475;-74
2023/12/19 05:03:33;;;;;;;10.63;6.63;;;8.60;99.90;;;;;;5049950;28;20127;-74
2023/12/19 05:06:00;;;;;;;10.20;6.38;;;8.50;99.90;;;;;;5047509;28;20055;-72
2023/12/19 05:08:25;;;;;;;8.68;6.80;;;8.60;99.90;;;;;;5047892;28;20047;-73
2023/12/19 05:10:51;;;;;;;9.10;6.05;;;8.60;99.90;;;;;;5067043;28;20044;-74
2023/12/19 05:13:17;;;;;;;9.18;6.25;;;8.60;99.90;;;;;;5051565;28;20053;-75
2023/12/19 05:15:42;;;;;;;9.63;6.63;;;8.60;99.90;;;;;;5049514;28;20048;-74
2023/12/19 05:18:08;;;;;;;8.57;6.43;;;8.60;99.90;;;;;;5048816;28;20044;-74
2023/12/19 05:20:34;;;;;;;9.02;6.32;;;8.60;99.90;;;;;;5050594;28;20091;-73
2023/12/19 05:23:01;;;;;;;8.05;5.57;;;8.60;99.90;;;;;;5045172;28;20033;-73
2023/12/19 05:25:27;;;;;;;8.52;6.25;;;8.60;99.90;;;;;;5051453;28;20122;-73
2023/12/19 05:27:52;;;;;;;7.72;5.72;;;8.50;99.90;;;;;;5036900;28;20057;-73
2023/12/19 05:30:18;;;;;;;7.00;5.30;;;8.50;99.90;;;;;;5050682;28;20055;-73
2023/12/19 05:32:44;;;;;;;9.30;5.70;;;8.60;99.90;;;;;;5048860;28;20052;-74
2023/12/19 05:35:10;;;;;;;7.50;5.60;;;8.60;99.90;;;;;;5039888;28;20053;-75
2023/12/19 05:37:35;;;;;;;8.38;5.22;;;8.60;99.90;;;;;;5044118;28;20112;-73
2023/12/19 05:40:02;;;;;;;9.07;6.05;;;8.60;99.90;;;;;;5046805;28;20567;-74
2023/12/19 05:42:27;;;;;;;8.77;5.82;;;8.60;99.90;;;;;;5038136;28;20052;-75
2023/12/19 05:44:53;;;;;;;9.07;5.13;;;8.60;99.90;;;;;;5035663;28;20123;-73
2023/12/19 05:47:18;;;;;;;7.13;5.90;;;8.60;99.90;;;;;;5048439;28;20487;-75
2023/12/19 05:49:44;;;;;;;8.40;5.65;;;8.70;99.90;;;;;;5031959;28;20373;-74
2023/12/19 05:52:10;;;;;;;7.75;5.50;;;8.70;99.90;;;;;;5050185;28;20381;-74
2023/12/19 05:54:35;;;;;;;8.63;5.22;;;8.70;99.90;;;;;;5050738;28;20053;-74
2023/12/19 05:57:01;;;;;;;8.20;6.00;;;8.60;99.90;;;;;;5049866;28;20131;-74
2023/12/19 05:59:27;;;;;;;8.38;5.85;;;8.60;99.90;;;;;;5045466;28;20045;-74
2023/12/19 06:01:52;;;;;;;10.30;6.40;;;8.70;99.90;;;;;;5052789;28;20052;-75
2023/12/19 06:04:18;;;;;;;7.53;5.72;;;8.60;99.90;;;;;;5055320;28;20048;-74
2023/12/19 06:06:44;;;;;;;8.02;5.45;;;8.60;99.90;;;;;;5053962;28;20045;-75
2023/12/19 06:09:13;;;;;;;12.60;5.95;;;8.60;99.90;;;;;;5041436;28;20049;-73
2023/12/19 06:11:38;;;;;;;7.20;5.43;;;8.70;99.90;;;;;;5053325;28;20044;-74
2023/12/19 06:14:05;;;;;;;8.07;5.20;;;8.70;99.90;;;;;;5053813;28;20404;-74
2023/12/19 06:16:31;;;;;;;6.75;5.15;;;8.70;99.90;;;;;;5048890;28;20149;-73
2023/12/19 06:18:57;;;;;;;8.88;5.90;;;8.70;99.90;;;;;;5045257;28;20045;-74
2023/12/19 06:21:23;;;;;;;8.07;5.13;;;8.70;99.90;;;;;;5054338;28;20128;-76
2023/12/19 06:23:49;;;;;;;6.47;4.88;;;8.70;99.90;;;;;;5054090;28;20052;-74
2023/12/19 06:26:15;;;;;;;8.05;5.15;;;8.70;99.90;;;;;;5054244;28;20132;-73
2023/12/19 06:28:40;;;;;;;7.13;5.25;;;8.70;99.90;;;;;;5040234;28;20152;-72
2023/12/19 06:31:06;;;;;;;6.95;5.07;;;8.70;99.90;;;;;;5053975;28;20052;-74
2023/12/19 06:33:32;;;;;;;7.50;4.85;;;8.70;99.90;;;;;;5053639;28;20045;-74
2023/12/19 06:35:58;;;;;;;6.82;5.07;;;8.70;99.90;;;;;;5050285;28;20796;-73
2023/12/19 06:38:24;;;;;;;5.88;4.57;;;8.80;99.90;;;;;;5052881;28;20048;-74
2023/12/19 06:40:49;;;;;;;8.15;4.75;;;8.70;99.90;;;;;;5067442;28;20044;-75
2023/12/19 06:43:17;;;;;;;6.70;5.15;;;8.80;99.90;;;;;;5054252;28;20087;-75
2023/12/19 06:45:42;;;;;;;6.10;4.60;;;8.80;99.90;;;;;;5052926;28;20053;-73
2023/12/19 06:48:08;;;;;;;6.50;4.72;;;8.80;99.90;;;;;;5052411;28;20040;-73
2023/12/19 06:50:34;;;;;;;7.72;5.95;;;8.80;99.90;;;;;;5053788;28;20077;-75
2023/12/19 06:53:00;;;;;;;8.48;5.72;;;8.80;99.90;;;;;;5052549;28;20657;-73
2023/12/19 06:55:27;;;;;;;8.63;5.82;;;8.80;99.90;;;;;;5053228;28;20055;-74
2023/12/19 06:57:53;;;;;;;8.05;6.00;;;8.80;99.90;;;;;;5051868;28;20064;-74
2023/12/19 07:00:18;;;;;;;7.65;5.65;;;8.90;99.90;;;;;;5032939;28;20045;-74
2023/12/19 07:02:44;;;;;;;7.72;6.25;;;8.80;99.90;;;;;;5044650;28;20043;-73
2023/12/19 07:05:10;;;;;;;8.52;6.40;;;8.80;99.90;;;;;;5052780;28;20053;-75
2023/12/19 07:07:36;;;;;;;8.35;6.15;;;8.80;99.90;;;;;;5052268;28;20049;-75
2023/12/19 07:10:03;;;;;;;9.55;6.43;;;8.80;99.90;;;;;;5053251;28;20226;-73
2023/12/19 07:12:32;;;;;;;8.27;6.10;;;8.80;99.90;;;;;;5045253;28;20041;-74
2023/12/19 07:14:58;;;;;;;8.00;5.72;;;8.80;99.90;;;;;;5053113;28;20072;-74
2023/12/19 07:17:23;;;;;;;6.97;5.55;;;8.80;99.90;;;;;;5044567;28;20077;-74
2023/12/19 07:19:49;;;;;;;7.03;5.53;;;8.80;99.90;;;;;;5032578;28;20041;-74
2023/12/19 07:22:15;;;;;;;7.72;5.75;;;8.80;99.90;;;;;;5047699;28;20044;-74
2023/12/19 07:24:40;;;;;;;8.32;5.95;;;8.80;99.90;;;;;;5053092;28;20052;-75
2023/12/19 07:27:06;;;;;;;7.75;5.93;;;8.80;99.90;;;;;;5051346;28;20061;-74
2023/12/19 07:29:32;;;;;;;8.27;5.72;;;8.80;99.90;;;;;;5046982;28;20049;-74
2023/12/19 07:32:00;;;;;;;7.55;5.90;;;8.80;99.90;;;;;;5046000;28;20151;-73
2023/12/19 07:34:26;;;;;;;8.05;5.50;;;8.80;99.90;;;;;;5046812;28;20049;-73
2023/12/19 07:36:52;;;;;;;7.78;5.55;;;8.80;99.90;;;;;;5046784;28;20084;-73
2023/12/19 07:39:17;;;;;;;8.80;5.82;;;8.80;99.90;;;;;;5050041;28;20116;-74
2023/12/19 07:41:43;;;;;;;5.68;4.30;;;8.80;99.90;;;;;;5053212;28;20040;-75
2023/12/19 07:44:14;;;;;;;7.95;5.18;;;8.80;99.90;;;;;;5066269;28;20049;-73
2023/12/19 07:46:41;;;;;;;6.38;4.45;;;8.90;99.90;;;;;;5052365;28;20049;-75
2023/12/19 07:49:07;;;;;;;6.10;4.40;;;8.80;99.90;;;;;;5047064;28;20049;-75
2023/12/19 07:51:32;;;;;;;7.25;4.68;;;8.90;99.90;;;;;;5052252;28;20067;-76
2023/12/19 07:53:58;;;;;;;6.43;4.40;;;8.90;99.90;;;;;;5048561;28;20048;-75
2023/12/19 07:56:24;;;;;;;6.43;4.70;;;8.90;99.90;;;;;;5049174;28;20498;-74
2023/12/19 07:58:51;;;;;;;6.72;4.07;;;8.80;99.90;;;;;;5049199;28;20037;-73
2023/12/19 08:01:16;;;;;;;6.07;4.28;;;8.90;99.90;;;;;;5052835;28;20037;-77
2023/12/19 08:03:43;;;;;;;5.47;3.90;;;8.90;99.90;;;;;;5052438;28;20052;-74
2023/12/19 08:06:09;;;;;;;5.95;4.15;;;8.90;99.90;;;;;;5033314;28;20056;-74
2023/12/19 08:08:35;;;;;;;6.40;4.30;;;8.90;99.90;;;;;;5049770;28;20081;-75
2023/12/19 08:11:01;;;;;;;6.65;4.10;;;8.90;99.90;;;;;;5046598;28;20080;-73
2023/12/19 08:13:27;;;;;;;6.30;3.88;;;8.90;99.90;;;;;;5052070;28;20041;-72
2023/12/19 08:15:52;;;;;;;7.70;4.25;;;8.90;99.90;;;;;;5044441;28;20461;-72
2023/12/19 08:18:19;;;;;;;5.47;4.10;;;8.90;99.90;;;;;;5045332;28;20080;-74
2023/12/19 08:20:45;;;;;;;6.10;3.85;;;8.90;99.90;;;;;;5051983;28;20041;-74
2023/12/19 08:23:11;;;;;;;5.70;3.95;;;8.90;99.90;;;;;;5048232;28;20053;-73
2023/12/19 08:25:41;;;;;;;6.10;4.43;;;8.90;99.90;;;;;;5051819;28;20423;-73
2023/12/19 08:28:08;;;;;;;6.85;4.38;;;8.90;99.90;;;;;;5032719;28;20049;-73
2023/12/19 08:30:34;;;;;;;6.63;4.22;;;8.90;99.90;;;;;;5034334;28;20181;-72
2023/12/19 08:33:00;;;;;;;7.45;4.60;;;9.00;99.90;;;;;;5051590;28;20472;-74
2023/12/19 08:35:26;;;;;;;6.25;4.18;;;8.90;99.90;;;;;;5052327;28;20045;-73
2023/12/19 08:37:52;;;;;;;5.50;3.90;;;9.00;99.90;;;;;;5048513;28;20407;-73
2023/12/19 08:40:21;;;;;;;6.30;3.92;;;9.00;99.90;;;;;;5049068;28;20516;-73
2023/12/19 08:42:48;;;;;;;5.63;4.10;;;9.00;99.90;;;;;;5048722;28;20052;-72
2023/12/19 08:45:19;;;;;;;7.05;4.10;;;9.00;99.90;;;;;;5031855;28;20385;-74
2023/12/19 08:47:46;;;;;;;5.53;4.07;;;9.00;99.90;;;;;;5044687;28;20469;-73
2023/12/19 08:50:13;;;;;;;5.75;4.40;;;9.00;99.90;;;;;;5040239;28;20356;-73
2023/12/19 08:52:42;;;;;;;6.63;5.03;;;9.00;99.90;;;;;;5040616;28;20080;-72
2023/12/19 08:55:12;;;;;;;6.18;4.43;;;9.10;99.90;;;;;;5044522;28;20050;-73
2023/12/19 08:57:42;;;;;;;5.75;4.43;;;9.00;99.90;;;;;;5043442;28;20056;-73
2023/12/19 09:00:20;;;;;;;7.03;5.50;;;9.10;99.90;;;;;;5050928;28;20496;-73
2023/12/19 09:02:46;;;;;;;7.15;5.22;;;9.00;99.90;;;;;;5049760;28;20056;-73
2023/12/19 09:05:13;;;;;;;11.90;6.25;;;9.10;99.90;;;;;;5050952;28;20103;-73
2023/12/19 09:07:40;;;;;;;9.05;6.35;;;9.10;99.90;;;;;;5044364;28;20042;-73
2023/12/19 09:10:06;;;;;;;8.90;6.95;;;9.10;99.90;;;;;;5041041;28;20425;-72
2023/12/19 09:12:33;;;;;;;9.10;6.85;;;9.10;99.90;;;;;;5050094;28;20045;-74
2023/12/19 09:14:59;;;;;;;9.57;6.43;;;9.10;99.90;;;;;;5047669;28;20404;-72
2023/12/19 09:17:25;;;;;;;9.35;6.90;;;9.20;99.90;;;;;;5049202;28;20132;-73
2023/12/19 09:19:50;;;;;;;11.55;7.50;;;9.10;99.90;;;;;;5049448;28;20040;-74
2023/12/19 09:22:16;;;;;;;10.25;7.72;;;9.20;99.90;;;;;;5044365;28;20053;-74
2023/12/19 09:24:42;;;;;;;10.20;7.47;;;9.10;99.90;;;;;;5051680;28;20076;-72
2023/12/19 09:27:08;;;;;;;13.38;7.68;;;9.20;99.90;;;;;;5044039;28;20065;-72
2023/12/19 09:29:33;;;;;;;9.10;7.00;;;9.20;99.90;;;;;;5050212;28;20051;-72
2023/12/19 09:32:01;;;;;;;8.95;7.18;;;9.20;99.90;;;;;;5051359;28;20041;-72
2023/12/19 09:34:27;;;;;;;10.15;7.25;;;9.20;99.90;;;;;;5038452;28;20488;-74
2023/12/19 09:36:53;;;;;;;9.50;7.10;;;9.20;99.90;;;;;;5051565;28;20052;-74
2023/12/19 09:39:19;;;;;;;9.23;7.15;;;9.20;99.90;;;;;;5053051;28;20545;-73
2023/12/19 09:41:48;;;;;;;8.40;6.50;;;9.30;99.90;;;;;;5046933;28;20057;-74
2023/12/19 09:44:13;;;;;;;8.93;6.82;;;9.30;99.90;;;;;;5035621;28;20052;-74
2023/12/19 09:46:41;;;;;;;8.80;7.15;;;9.40;99.90;;;;;;5048647;28;20053;-74
2023/12/19 09:49:09;;;;;;;10.45;7.20;;;9.30;99.90;;;;;;5045417;28;20041;-71
2023/12/19 09:51:37;;;;;;;9.32;7.20;;;9.40;99.90;;;;;;5044602;28;20073;-73
2023/12/19 09:54:03;;;;;;;10.60;7.45;;;9.40;99.90;;;;;;5048275;28;20055;-74
2023/12/19 09:56:30;;;;;;;9.30;6.85;;;9.40;99.90;;;;;;5054191;28;20041;-75
2023/12/19 09:59:00;;;;;;;8.82;6.70;;;9.40;99.90;;;;;;5052973;28;20442;-77
2023/12/19 10:01:31;;;;;;;8.27;6.13;;;9.40;99.90;;;;;;5049308;28;20045;-77
2023/12/19 10:03:59;;;;;;;8.57;6.28;;;9.40;99.90;;;;;;5053202;28;20098;-75
2023/12/19 10:06:25;;;;;;;8.88;6.45;;;9.50;99.90;;;;;;5053965;28;20045;-78
2023/12/19 10:08:55;;;;;;;8.93;6.78;;;9.50;99.90;;;;;;5051101;28;20053;-76
2023/12/19 10:11:25;;;;;;;7.93;6.10;;;9.50;99.90;;;;;;5046087;28;20051;-76
2023/12/19 10:13:51;;;;;;;7.60;5.38;;;9.50;99.90;;;;;;5054507;28;20081;-76
2023/12/19 10:16:19;;;;;;;8.50;5.85;;;9.50;99.90;;;;;;5050210;28;20449;-75
2023/12/19 10:18:54;;;;;;;8.10;6.00;;;9.50;99.90;;;;;;5050983;28;20095;-75
2023/12/19 10:21:23;;;;;;;8.55;6.00;;;9.60;99.90;;;;;;5052838;28;20369;-75
2023/12/19 10:23:48;;;;;;;7.80;5.60;;;9.50;99.90;;;;;;5041666;28;20102;-77
2023/12/19 10:26:15;;;;;;;9.60;5.97;;;9.50;99.90;;;;;;5058603;28;20053;-78
2023/12/19 10:28:41;;;;;;;7.88;5.93;;;9.60;99.90;;;;;;5053942;28;20056;-78
2023/12/19 10:31:06;;;;;;;8.02;6.10;;;9.60;99.90;;;;;;5068430;28;20049;-77
2023/12/19 10:33:46;;;;;;;8.30;5.75;;;9.60;99.90;;;;;;5048256;28;20385;-76
2023/12/19 10:36:31;;;;;;;9.10;6.40;;;9.60;99.90;;;;;;5053851;28;20041;-75
2023/12/19 10:38:59;;;;;;;7.45;5.85;;;9.60;99.90;;;;;;5054884;28;20056;-80
2023/12/19 10:41:28;;;;;;;8.63;6.50;;;9.60;99.90;;;;;;5042912;28;20044;-79
2023/12/19 10:43:58;;;;;;;11.32;6.32;;;9.60;99.90;;;;;;5049559;28;20099;-79
2023/12/19 10:46:30;;;;;;;8.77;6.07;;;9.60;99.90;;;;;;5052057;28;20098;-78
2023/12/19 10:49:03;;;;;;;7.90;5.80;;;9.70;99.90;;;;;;5054746;28;20147;-77
2023/12/19 10:51:30;;;;;;;9.05;5.85;;;9.70;99.90;;;;;;5051518;28;20045;-77
2023/12/19 10:54:13;;;;;;;9.95;6.28;;;9.70;99.90;;;;;;5044117;28;20131;-75
2023/12/19 10:57:06;;;;;;;7.80;5.38;;;9.70;99.90;;;;;;5052065;28;20041;-78
2023/12/19 10:59:47;;;;;;;9.45;6.93;;;9.70;99.90;;;;;;5049609;28;20061;-78
2023/12/19 11:02:32;;;;;;;9.48;7.20;;;9.80;99.90;;;;;;5049446;28;20075;-77
2023/12/19 11:05:16;;;;;;;9.68;6.88;;;9.80;99.90;;;;;;5052466;28;20045;-78
2023/12/19 11:07:43;;;;;;;9.35;6.90;;;9.80;99.90;;;;;;5052927;28;20079;-73
2023/12/19 11:10:10;;;;;;;9.63;7.00;;;9.90;99.90;;;;;;5053711;28;20450;-71
2023/12/19 11:12:41;;;;;;;8.60;6.90;;;9.90;99.90;;;;;;5052021;28;20874;-72
2023/12/19 11:15:07;;;;;;;9.10;6.40;;;9.90;99.90;;;;;;5052285;28;20056;-70
2023/12/19 11:17:38;;;;;;;9.80;7.03;;;9.90;99.90;;;;;;5048714;28;20122;-71
2023/12/19 11:20:27;;;;;;;9.35;6.97;;;10.00;99.90;;;;;;5047602;28;20053;-71
2023/12/19 11:23:14;;;;;;;9.63;7.32;;;10.00;99.90;;;;;;5046444;28;20047;-72
2023/12/19 11:25:54;;;;;;;9.73;7.40;;;10.00;99.90;;;;;;5046009;28;20107;-72
2023/12/19 11:28:19;;;;;;;10.38;7.93;;;10.00;99.90;;;;;;5040628;28;20436;-70
2023/12/19 11:30:45;;;;;;;9.55;7.43;;;10.00;99.90;;;;;;5040450;28;20045;-71
2023/12/19 11:33:12;;;;;;;9.50;7.28;;;10.00;99.90;;;;;;5043554;28;20076;-71
2023/12/19 11:35:39;;;;;;;10.27;8.02;;;10.00;99.90;;;;;;5045649;28;20080;-72
2023/12/19 11:38:14;;;;;;;8.60;6.78;;;10.00;99.90;;;;;;5053088;28;20072;-72
2023/12/19 11:40:46;;;;;;;9.02;7.10;;;10.00;99.90;;;;;;5051666;28;20153;-71
2023/12/19 11:43:27;;;;;;;10.77;7.00;;;10.00;99.90;;;;;;5053189;28;20048;-71
2023/12/19 11:45:54;;;;;;;10.98;7.20;;;10.10;99.90;;;;;;5049817;28;20041;-70
2023/12/19 11:48:40;;;;;;;9.85;7.05;;;10.10;99.90;;;;;;5044747;28;20041;-72
2023/12/19 11:51:07;;;;;;;11.02;7.80;;;10.10;99.90;;;;;;5068524;28;20055;-72
2023/12/19 11:53:34;;;;;;;8.95;6.68;;;10.10;99.90;;;;;;5052519;28;20045;-72
2023/12/19 11:56:08;;;;;;;8.82;7.03;;;10.10;99.90;;;;;;5051474;28;20052;-71
2023/12/19 11:58:37;;;;;;;9.20;6.93;;;10.10;99.90;;;;;;5048462;28;20447;-71
2023/12/19 12:01:04;;;;;;;8.68;6.80;;;10.10;99.90;;;;;;5047961;28;20049;-72
2023/12/19 12:03:30;;;;;;;9.30;7.05;;;10.10;99.90;;;;;;5033545;28;20055;-70
2023/12/19 12:05:56;;;;;;;11.52;6.88;;;10.10;99.90;;;;;;5047925;28;20049;-72
2023/12/19 12:08:22;;;;;;;9.40;6.35;;;10.10;99.90;;;;;;5047184;28;20060;-71
2023/12/19 12:11:07;;;;;;;8.70;6.38;;;10.10;99.90;;;;;;5051148;28;20140;-73
2023/12/19 12:13:35;;;;;;;10.40;6.50;;;10.00;99.90;;;;;;5051294;28;20057;-72
2023/12/19 12:16:02;;;;;;;9.98;6.30;;;10.00;99.90;;;;;;5046115;28;20064;-71
2023/12/19 12:18:30;;;;;;;8.60;6.45;;;10.00;99.90;;;;;;5040464;28;20054;-70
2023/12/19 12:21:09;;;;;;;12.00;6.38;;;10.00;99.90;;;;;;5051888;28;20460;-73
2023/12/19 12:23:35;;;;;;;11.63;6.82;;;10.00;99.90;;;;;;5051036;28;20044;-72
2023/12/19 12:26:01;;;;;;;11.60;7.15;;;10.00;99.90;;;;;;5050520;28;20065;-71
2023/12/19 12:28:28;;;;;;;9.45;6.53;;;10.00;99.90;;;;;;5050924;28;20410;-71
2023/12/19 12:30:57;;;;;;;7.60;6.18;;;10.00;99.90;;;;;;5051498;28;20049;-73
2023/12/19 12:33:27;;;;;;;8.13;6.60;;;10.00;99.90;;;;;;5046631;28;20514;-73
2023/12/19 12:35:57;;;;;;;7.85;5.80;;;10.00;99.90;;;;;;5036188;28;20084;-72
2023/12/19 12:38:23;;;;;;;7.72;5.93;;;10.00;99.90;;;;;;5039695;28;20056;-72
2023/12/19 12:41:00;;;;;;;7.20;5.60;;;10.10;99.90;;;;;;5047359;28;20052;-72
2023/12/19 12:43:33;;;;;;;8.10;6.00;;;10.00;99.90;;;;;;5047682;28;20033;-74
2023/12/19 12:46:03;;;;;;;8.70;6.03;;;10.10;99.90;;;;;;5025728;28;20055;-73
2023/12/19 12:48:28;;;;;;;7.60;6.05;;;10.10;99.90;;;;;;5045349;28;20112;-71